Miami International Airport
KMIA : now visible

Airfield :











YOU CAN JOIN US ON...

 
LOGIN :

Register | Disclaimer

   EN    FR    IT 

 









Legend :    VFR   Marginal VFR   IFR   Intensive IFR   Very Intensive IFR
Visi :
Ceiling :
>= 8 km
>= 3000ft
5 to 8 km
1000 to 3000 ft
1500m to 5 km
500 to 1000 ft
800 to 1500m
200 to 500 ft
< 800m
< 200 ft
Symbols :   Thunderstorms  Fog  Heavy snow  Heavy precipitations  Wind > 20 kt







- Airport Elevation : 8 ft
- IATA code : MIA


KMIA - Miami International

CURRENT METAR :
  • 192253Z 10011KT 10SM SCT027 26/21 A3013 RMK AO2 SLP202 T02560206

EXPIRED METARs :
  • 192153Z 11013KT 10SM BKN030 27/20 A3013 RMK AO2 SLP201 T02670200
  • 192053Z 09016KT 10SM BKN030 27/20 A3013 RMK AO2 SLP202 T02720200 56019

TAF KMIA
Valid from the 20 at 00:00 until the 21 at 06:00 UTC


192320Z 2000/2106 10010G18KT P6SM FEW025
FM201400 13015KT P6SM SCT035
FM210000 13010KT P6SM FEW025
KZMA FIR / North America



MET'MAP, your aeronautical weather chart ! - Copyright ORBIFLY December 2007 - Disclaimer

ORBIFLY MET'MAP TEAM :

Programming & Development : Alexandra Zaïnal
Concept & Development : Baudouin d'Aumeries
Co-Development & Prog : Marc-Olivier Méhu
Technical & hardware support : Manuel Goepfert

Contact : metmap@orbifly.com




SOURCES & CREDITS :

   NOAA       Earth
Advisory